Flight Track Log - Related Links

Times and Time Zones

All times are in EDT time to prevent confusion due to time zone crossing. See the EJA941 flight status page for this flight to view local times or setup timezone preferences in your user account.

Time Position Orientation Groundspeed Altitude Reporting Facility
EDT Latitude Longitude Course Direction KTS MPH feet Rate Location/Type
Fri 11:07:30 AM 40.8833 -74.0333 294° West 187 215 1,900  Level New York TRACON
Fri 11:08:30 AM 40.9000 -74.0833 294° West 200 230 2,000 1,286 Climbing New York TRACON
Fri 11:09:36 AM 40.9167 -74.1500 288° West 225 259 4,600 1,950 Climbing New York TRACON
Fri 11:10:30 AM 40.9833 -74.1667 349° North 268 308 5,900 850 Climbing New York TRACON
Fri 11:11:36 AM 41.0667 -74.1500 North 275 316 6,300 550 Climbing New York TRACON
Fri 11:12:30 AM 41.1333 -74.1333 11° North 287 330 7,000 1,891 Climbing New York TRACON
Fri 11:14:40 AM 41.2047 -73.9328 65° Northeast 302 348 12,100 2,368 Climbing Boston Center
Fri 11:15:40 AM 41.2336 -73.7842 75° East 358 412 14,500 2,350 Climbing Boston Center
Fri 11:16:40 AM 41.2600 -73.6606 74° East 384 442 16,800 1,250 Climbing Boston Center
Fri 11:17:40 AM 41.3325 -73.5128 57° Northeast 421 484 17,000 100 Climbing Boston Center
Fri 11:18:40 AM 41.4369 -73.4756 15° North 398 458 17,000  Level Boston Center
Fri 11:19:40 AM 41.5642 -73.4639 North 398 458 17,000  Level Boston Center
Fri 11:20:40 AM 41.6706 -73.4544 North 411 473 17,000 -50 Level Boston Center
Fri 11:21:40 AM 41.7978 -73.4425 North 416 479 16,900 -50 Descending Boston Center
Fri 11:22:40 AM 41.9000 -73.4303 North 416 479 16,900  Level Boston Center
Fri 11:23:40 AM 42.0294 -73.4183 North 422 486 16,900 50 Level Boston Center
Fri 11:24:40 AM 42.1358 -73.4117 North 422 486 17,000 50 Climbing Boston Center
Fri 11:25:40 AM 42.2608 -73.3967 North 422 486 17,000  Level Boston Center
Fri 11:26:40 AM 42.3819 -73.3817 North 422 486 17,000  Level Boston Center
Fri 11:27:40 AM 42.4967 -73.3692 North 422 486 17,000  Level Boston Center
Fri 11:28:40 AM 42.6133 -73.3569 North 422 486 17,000  Level Boston Center
Fri 11:29:40 AM 42.7322 -73.3447 North 422 486 17,000  Level Boston Center
Fri 11:30:40 AM 42.8469 -73.3322 North 422 486 17,000  Level Boston Center
Fri 11:31:40 AM 42.9658 -73.3197 North 422 486 17,000  Level Boston Center
Fri 11:32:40 AM 43.0722 -73.3069 North 422 486 17,000  Level Boston Center
Fri 11:33:40 AM 43.1994 -73.2944 North 422 486 17,000  Level Boston Center
Fri 11:34:52 AM 43.3289 -73.2764 North 422 486 17,000 -318 Level Boston Center
Fri 11:35:52 AM 43.4456 -73.2694 North 422 486 16,300 -1,100 Descending Boston Center
Fri 11:36:52 AM 43.5583 -73.2567 North 415 478 14,800 -1,500 Descending Boston Center
Fri 11:37:52 AM 43.6708 -73.2439 North 410 472 13,300 -1,500 Descending Boston Center
Fri 11:38:52 AM 43.7814 -73.2308 North 399 459 11,800 -1,150 Descending Boston Center
Fri 11:39:52 AM 43.8817 -73.2206 North 373 429 11,000 -400 Descending Boston Center
Fri 11:40:52 AM 43.9836 -73.2106 North 368 423 11,000 -650 Level Boston Center
Fri 11:41:52 AM 44.0756 -73.1972 North 351 404 9,700 -1,800 Descending Boston Center
Fri 11:42:52 AM 44.1567 -73.1894 North 304 350 7,400 -2,550 Descending Boston Center
Fri 11:43:52 AM 44.2403 -73.1789 North 274 315 4,600 -1,950 Descending Boston Center
Fri 11:44:52 AM 44.3031 -73.1392 24° Northeast 256 295 3,500 -1,150 Descending Boston Center
Fri 11:45:52 AM 44.3636 -73.1194 13° North 231 266 2,300 -800 Descending Boston Center
Fri 11:46:52 AM 44.4136 -73.1086 North 198 228 1,900 -650 Descending Boston Center
Fri 11:47:52 AM 44.4511 -73.1206 347° North 151 174 1,000 4,550 Descending Boston Center
Fri 11:48:52 AM 44.4822 -73.1442 332° Northwest 125 144 11,000 5,000 Climbing Boston Center
Fri 11:49:52 AM 44.5133 -73.1650 334° Northwest 125 144 11,000  Level Boston Center
Fri 11:50:52 AM 44.5444 -73.1886 332° Northwest 125 144 11,000  Level Boston Center
Fri 11:51:52 AM 44.5756 -73.2094 335° Northwest 125 144 11,000  Level Boston Center
Fri 11:52:52 AM 44.6003 -73.2272 333° Northwest 125 144 11,000  Level Boston Center
Fri 11:54:00 AM 44.5127 -73.1766 158° South  Level FlightAware Approximate

Login

Don't have an account? Register now (free) for customized features, flight alerts, and more!